Time;durP1;ratioP1;P1;durP2;ratioP2;P2;SDS_P1;SDS_P2;PMS_P1;PMS_P2;Temp;Humidity;BMP_temperature;BMP_pressure;BME280_temperature;BME280_humidity;BME280_pressure;Samples;Min_cycle;Max_cycle;Signal;HPM_P1;HPM_P2
2021/07/21 00:01:12;;;;;;;6.70;5.68;;;;;;;16.27;58.32;100711.40;127903;1099;22404;-79
2021/07/21 00:03:42;;;;;;;8.00;5.90;;;;;;;16.25;58.51;100716.91;127918;1101;22385;-79
2021/07/21 00:06:13;;;;;;;8.58;5.35;;;;;;;16.22;58.42;100714.63;127871;1101;24344;-79
2021/07/21 00:08:43;;;;;;;7.03;4.75;;;;;;;16.18;58.69;100716.05;127897;1101;22412;-79
2021/07/21 00:14:07;;;;;;;7.20;5.33;;;;;;;16.13;58.51;100713.98;128181;1098;22375;-79
2021/07/21 00:16:39;;;;;;;7.43;6.00;;;;;;;16.11;58.65;100715.19;127980;1098;22424;-77
2021/07/21 00:21:59;;;;;;;8.73;5.73;;;;;;;16.08;59.29;100712.91;127948;1098;22386;-78
2021/07/21 00:24:29;;;;;;;7.90;5.78;;;;;;;16.06;58.99;100712.27;128137;1098;22421;-78
2021/07/21 00:27:00;;;;;;;9.23;5.80;;;;;;;16.06;59.00;100712.27;127975;1098;23004;-78
2021/07/21 00:29:30;;;;;;;8.13;6.13;;;;;;;16.04;59.04;100716.98;128247;1098;22389;-78
2021/07/21 00:32:06;;;;;;;7.20;5.70;;;;;;;16.01;59.11;100712.86;128003;1098;24544;-78
2021/07/21 00:34:36;;;;;;;6.03;5.03;;;;;;;15.98;59.38;100703.41;127976;1098;23325;-79
2021/07/21 00:37:08;;;;;;;9.80;5.88;;;;;;;15.97;59.42;100708.95;128002;1098;22414;-78
2021/07/21 00:39:38;;;;;;;8.10;5.98;;;;;;;15.93;59.26;100702.38;127979;1098;22424;-77
2021/07/21 00:42:09;;;;;;;;;;;;;;;15.85;59.21;100702.50;128038;1098;22465;-79
2021/07/21 00:44:40;;;;;;;7.48;5.50;;;;;;;15.79;60.11;100701.42;128017;1098;21263;-78
2021/07/21 00:47:11;;;;;;;7.78;6.65;;;;;;;15.77;59.76;100706.14;128004;1098;22378;-79
2021/07/21 00:49:41;;;;;;;7.68;6.40;;;;;;;15.76;60.02;100709.80;127877;1101;22373;-78
2021/07/21 00:52:12;;;;;;;7.17;6.13;;;;;;;15.74;60.09;100706.52;127924;1101;22714;-79
2021/07/21 00:54:46;;;;;;;6.05;5.45;;;;;;;15.72;59.70;100705.88;127853;1100;22382;-78
2021/07/21 00:57:18;;;;;;;7.65;6.13;;;;;;;15.71;60.13;100709.56;127885;1100;22507;-80
2021/07/21 00:59:50;;;;;;;8.75;5.85;;;;;;;15.69;60.14;100703.59;127916;1101;22380;-80
2021/07/21 01:02:20;;;;;;;7.85;6.03;;;;;;;15.66;60.76;100706.61;127960;1101;22490;-78
2021/07/21 01:04:51;;;;;;;12.63;6.33;;;;;;;15.64;60.49;100708.66;127880;1101;24254;-79
2021/07/21 01:07:21;;;;;;;7.68;6.40;;;;;;;15.62;60.71;100710.68;127951;1098;22414;-78
2021/07/21 01:09:51;;;;;;;8.35;6.40;;;;;;;15.61;61.14;100717.03;128000;1098;25027;-79
2021/07/21 01:12:38;;;;;;;8.63;6.50;;;;;;;15.59;60.79;100722.53;127975;1098;22827;-78
2021/07/21 01:15:29;;;;;;;10.28;6.80;;;;;;;15.55;60.98;100705.30;128006;1098;22369;-78
2021/07/21 01:18:07;;;;;;;9.50;6.18;;;;;;;15.51;61.26;100715.51;128009;1098;22397;-78
2021/07/21 01:21:24;;;;;;;7.98;6.45;;;;;;;15.50;61.48;100711.20;128050;1098;22394;-79
2021/07/21 01:24:42;;;;;;;9.40;6.37;;;;;;;15.44;61.74;100717.30;127889;1101;22385;-80
2021/07/21 01:27:22;;;;;;;6.30;5.38;;;;;;;15.38;61.64;100706.58;127916;1101;24502;-80
2021/07/21 01:29:58;;;;;;;9.63;6.48;;;;;;;15.36;61.92;100716.58;127950;1101;24505;-78
2021/07/21 01:32:31;;;;;;;12.93;6.35;;;;;;;15.33;62.61;100716.96;127962;1100;24714;-79
2021/07/21 01:35:14;;;;;;;8.80;6.65;;;;;;;15.30;62.43;100721.67;127571;1101;22383;-79
2021/07/21 01:38:04;;;;;;;8.73;6.85;;;;;;;15.26;62.51;100723.06;127938;1100;22421;-79
2021/07/21 01:40:44;;;;;;;10.35;7.05;;;;;;;15.22;62.78;100724.44;127478;1101;25110;-79
2021/07/21 01:43:21;;;;;;;8.95;6.60;;;;;;;15.16;62.75;100724.37;127325;1101;22396;-78
2021/07/21 01:45:53;;;;;;;6.83;6.13;;;;;;;15.13;63.25;100727.40;127386;1101;22412;-79
2021/07/21 01:48:26;;;;;;;7.05;6.35;;;;;;;15.11;63.52;100718.80;127467;1101;22392;-79
2021/07/21 01:50:58;;;;;;;7.90;6.43;;;;;;;15.06;63.49;100728.18;127244;1105;22409;-78
2021/07/21 01:53:38;;;;;;;12.58;6.30;;;;;;;15.04;63.72;100724.88;127059;1105;22420;-79
2021/07/21 01:56:14;;;;;;;10.73;6.83;;;;;;;14.99;63.79;100716.61;127229;1104;24541;-78
2021/07/21 01:58:49;;;;;;;7.48;6.68;;;;;;;14.97;64.10;100720.50;127198;1101;22388;-78
2021/07/21 02:01:29;;;;;;;;;;;;;;;14.87;63.94;100727.95;127677;1101;22404;-79
2021/07/21 02:04:01;;;;;;;8.05;5.75;;;;;;;14.79;64.36;100728.86;127919;1098;23528;-78
2021/07/21 02:06:36;;;;;;;9.18;5.95;;;;;;;14.78;64.46;100729.88;127867;1100;22836;-80
2021/07/21 02:09:10;;;;;;;7.58;6.30;;;;;;;14.76;64.66;100731.89;127900;1098;22407;-79
2021/07/21 02:11:42;;;;;;;8.87;6.77;;;;;;;14.73;64.71;100726.97;127958;1098;22428;-78
2021/07/21 02:14:15;;;;;;;10.93;6.30;;;;;;;14.68;64.80;100726.69;127956;1098;22366;-79
2021/07/21 02:16:53;;;;;;;7.03;6.30;;;;;;;14.65;65.32;100729.71;127974;1098;22397;-79
2021/07/21 02:19:33;;;;;;;14.30;6.43;;;;;;;14.63;65.56;100732.57;127996;1098;22370;-79
2021/07/21 02:22:29;;;;;;;9.38;6.58;;;;;;;14.58;65.41;100734.95;127991;1098;24040;-79
2021/07/21 02:25:21;;;;;;;8.33;6.20;;;;;;;14.54;65.74;100731.83;128173;1098;22375;-78
2021/07/21 02:27:53;;;;;;;7.80;6.83;;;;;;;14.53;66.00;100735.51;128036;1098;22378;-79
2021/07/21 02:30:25;;;;;;;11.05;8.45;;;;;;;14.51;65.98;100745.48;127981;1098;22400;-77
2021/07/21 02:33:22;;;;;;;7.93;6.95;;;;;;;14.50;66.06;100749.16;127999;1098;22399;-78
2021/07/21 02:35:53;;;;;;;8.30;6.90;;;;;;;14.48;66.12;100737.03;128074;1098;24272;-79
2021/07/21 02:38:24;;;;;;;7.93;7.13;;;;;;;14.46;66.35;100747.01;128305;1098;24205;-81
2021/07/21 02:40:57;;;;;;;10.60;6.25;;;;;;;14.44;66.49;100749.86;128074;1096;24650;-79
2021/07/21 02:43:35;;;;;;;8.58;7.20;;;;;;;14.42;66.55;100749.20;128586;1098;22732;-80
2021/07/21 02:46:09;;;;;;;12.08;8.20;;;;;;;14.40;66.52;100748.59;128139;1098;24252;-78
2021/07/21 02:48:44;;;;;;;11.30;6.85;;;;;;;14.40;66.88;100753.08;128039;1098;22677;-78
2021/07/21 02:51:48;;;;;;;12.75;7.33;;;;;;;14.39;66.55;100760.20;127951;1098;22382;-80
2021/07/21 02:54:43;;;;;;;9.48;6.75;;;;;;;14.35;66.96;100761.58;127900;1098;22541;-78
2021/07/21 02:57:24;;;;;;;8.17;7.27;;;;;;;14.35;67.07;100758.92;127986;1101;22370;-78
2021/07/21 03:00:05;;;;;;;9.95;7.53;;;;;;;14.33;67.29;100758.30;127934;1098;24531;-79
2021/07/21 03:02:37;;;;;;;8.60;7.13;;;;;;;14.33;67.28;100768.93;128157;1098;22417;-79
2021/07/21 03:05:13;;;;;;;8.25;7.33;;;;;;;14.31;67.21;100769.09;127554;1098;22402;-80
2021/07/21 03:07:56;;;;;;;8.55;7.55;;;;;;;14.31;67.64;100771.75;127963;1101;23204;-78
2021/07/21 03:10:29;;;;;;;13.80;12.38;;;;;;;14.31;67.62;100774.41;128026;1098;22375;-78
2021/07/21 03:13:23;;;;;;;9.80;8.17;;;;;;;14.31;67.50;100786.88;128243;1098;24215;-79
2021/07/21 03:16:04;;;;;;;9.68;7.35;;;;;;;14.30;67.73;100778.09;128225;1098;25050;-78
2021/07/21 03:19:05;;;;;;;9.93;8.35;;;;;;;14.30;67.75;100783.40;128030;1098;22379;-80
2021/07/21 03:21:42;;;;;;;10.60;8.50;;;;;;;14.31;67.83;100793.02;128269;1098;22382;-80
2021/07/21 03:24:22;;;;;;;10.78;8.48;;;;;;;14.33;67.83;100784.88;127945;1098;24274;-78
2021/07/21 03:26:58;;;;;;;10.83;8.43;;;;;;;14.36;67.76;100785.34;127973;1098;22365;-78
2021/07/21 03:29:54;;;;;;;9.10;8.00;;;;;;;14.37;67.83;100786.16;127984;1098;22464;-77
2021/07/21 03:32:27;;;;;;;9.30;8.30;;;;;;;14.38;68.26;100787.80;127899;1098;22378;-78
2021/07/21 03:34:58;;;;;;;11.35;9.15;;;;;;;14.41;67.89;100791.94;127927;1098;22551;-79
2021/07/21 03:37:30;;;;;;;15.28;8.60;;;;;;;14.42;68.00;100788.26;127943;1098;22357;-79
2021/07/21 03:40:06;;;;;;;8.05;7.05;;;;;;;14.45;68.07;100793.21;127955;1098;22313;-77
2021/07/21 03:43:12;;;;;;;13.85;8.88;;;;;;;14.46;68.10;100798.36;127955;1098;24243;-78
2021/07/21 03:45:56;;;;;;;13.48;8.78;;;;;;;14.49;67.98;100797.16;128153;1096;22353;-79
2021/07/21 03:48:28;;;;;;;10.55;8.33;;;;;;;14.52;68.15;100794.98;128180;1098;22657;-77
2021/07/21 03:51:13;;;;;;;9.58;7.53;;;;;;;14.57;68.17;100795.27;128186;1098;22341;-78
2021/07/21 03:54:06;;;;;;;14.80;7.55;;;;;;;14.62;68.15;100793.89;128165;1096;24599;-78
2021/07/21 03:56:42;;;;;;;9.88;7.65;;;;;;;14.67;68.34;100787.02;128166;1098;25006;-77
2021/07/21 03:59:17;;;;;;;13.45;8.55;;;;;;;14.73;68.15;100791.61;128194;1098;23139;-78
2021/07/21 04:01:51;;;;;;;10.45;7.70;;;;;;;14.78;68.16;100805.17;127969;1098;23122;-79
2021/07/21 04:04:22;;;;;;;11.78;8.70;;;;;;;14.82;67.73;100801.13;127961;1098;22378;-78
2021/07/21 04:06:53;;;;;;;10.65;8.60;;;;;;;14.92;68.04;100802.68;127936;1098;22367;-79
2021/07/21 04:09:32;;;;;;;16.83;9.68;;;;;;;15.00;67.90;100797.28;127932;1098;24823;-78
2021/07/21 04:12:04;;;;;;;12.85;8.28;;;;;;;15.08;67.75;100799.00;127929;1098;23841;-79
2021/07/21 04:14:55;;;;;;;;;;;;;;;15.13;67.64;100804.57;127927;1098;22389;-78
2021/07/21 04:17:41;;;;;;;13.85;8.18;;;;;;;15.16;67.18;100809.52;127926;1098;21321;-80
2021/07/21 04:20:16;;;;;;;14.28;8.73;;;;;;;15.26;67.42;100812.71;127918;1098;22375;-80
2021/07/21 04:22:49;;;;;;;14.47;8.53;;;;;;;15.36;67.11;100807.94;127960;1098;22496;-81
2021/07/21 04:25:22;;;;;;;15.03;8.53;;;;;;;15.46;66.79;100810.27;128102;1098;24504;-79
2021/07/21 04:27:59;;;;;;;13.13;8.55;;;;;;;15.59;66.74;100812.25;128215;1098;22374;-80
2021/07/21 04:30:33;;;;;;;10.95;8.18;;;;;;;15.69;66.54;100816.31;127996;1098;22370;-77
2021/07/21 04:33:05;;;;;;;10.15;7.93;;;;;;;15.80;66.29;100816.81;128144;1098;22378;-78
2021/07/21 04:35:36;;;;;;;11.70;8.60;;;;;;;15.86;66.03;100814.22;128213;1098;25218;-78
2021/07/21 04:38:09;;;;;;;11.95;8.95;;;;;;;15.96;65.82;100813.86;128257;1098;24297;-78
2021/07/21 04:41:22;;;;;;;12.45;8.90;;;;;;;16.05;65.64;100830.55;128180;1098;22382;-77
2021/07/21 04:43:57;;;;;;;12.53;8.20;;;;;;;16.15;65.62;100823.87;128149;1097;22363;-78
2021/07/21 04:46:36;;;;;;;8.40;7.10;;;;;;;16.25;65.29;100826.20;128167;1098;22420;-79
2021/07/21 04:49:11;;;;;;;11.73;8.08;;;;;;;16.39;65.76;100825.31;128173;1097;22366;-78
2021/07/21 04:51:44;;;;;;;20.25;8.28;;;;;;;16.55;65.22;100831.34;128229;1098;22364;-78
2021/07/21 04:54:20;;;;;;;10.60;7.30;;;;;;;16.70;64.90;100832.07;128170;1098;22811;-79
2021/07/21 04:56:53;;;;;;;12.03;8.30;;;;;;;16.84;64.31;100835.66;128161;1097;22360;-78
2021/07/21 04:59:28;;;;;;;16.88;11.98;;;;;;;16.97;63.92;100822.39;128352;1098;22378;-78
2021/07/21 05:01:59;;;;;;;16.27;9.37;;;;;;;17.08;64.20;100827.15;128206;1098;22369;-80
2021/07/21 05:04:29;;;;;;;13.08;8.50;;;;;;;17.22;63.66;100830.69;127990;1097;24520;-78
2021/07/21 05:07:18;;;;;;;17.95;8.95;;;;;;;17.37;63.86;100836.72;128160;1098;22361;-77
2021/07/21 05:09:50;;;;;;;9.80;8.08;;;;;;;17.56;63.77;100842.30;128238;1096;22386;-77
2021/07/21 05:12:21;;;;;;;13.38;7.08;;;;;;;17.78;63.56;100841.16;128022;1098;24262;-79
2021/07/21 05:15:02;;;;;;;8.95;8.05;;;;;;;17.99;63.04;100836.66;128205;1098;22359;-78
2021/07/21 05:17:38;;;;;;;10.95;7.50;;;;;;;18.18;62.81;100851.06;128218;1098;22391;-78
2021/07/21 05:20:14;;;;;;;10.43;7.68;;;;;;;18.32;62.08;100850.84;128185;1098;22371;-79
2021/07/21 05:22:59;;;;;;;8.58;7.10;;;;;;;18.46;61.75;100857.03;128216;1098;24489;-79
2021/07/21 05:25:53;;;;;;;11.05;7.58;;;;;;;18.69;61.66;100853.89;128223;1098;24753;-77
2021/07/21 05:29:02;;;;;;;8.15;6.15;;;;;;;18.97;61.64;100863.55;128114;1097;22370;-79
2021/07/21 05:31:50;;;;;;;8.75;7.10;;;;;;;19.22;60.98;100861.80;128244;1098;22382;-79
2021/07/21 05:34:29;;;;;;;31.28;10.50;;;;;;;19.47;60.15;100855.73;128232;1096;24514;-79
2021/07/21 05:37:22;;;;;;;71.88;16.63;;;;;;;19.77;59.75;100852.50;128043;1098;22365;-79
2021/07/21 05:39:55;;;;;;;12.77;6.87;;;;;;;20.05;58.55;100863.63;128206;1098;22379;-78
2021/07/21 05:42:43;;;;;;;14.05;6.93;;;;;;;20.36;58.26;100857.41;128254;1098;22359;-78
2021/07/21 05:45:14;;;;;;;14.20;7.10;;;;;;;20.62;57.60;100856.35;128198;1098;24601;-79
2021/07/21 05:47:44;;;;;;;15.63;7.33;;;;;;;20.89;56.81;100859.61;128217;1097;24819;-79
2021/07/21 05:50:17;;;;;;;29.23;10.78;;;;;;;21.14;55.92;100856.01;128230;1097;23189;-79
2021/07/21 05:52:59;;;;;;;25.05;8.25;;;;;;;21.34;55.47;100855.77;128166;1098;22381;-79
2021/07/21 05:55:47;;;;;;;11.73;5.73;;;;;;;21.61;55.54;100853.56;128200;1098;22345;-78
2021/07/21 05:58:20;;;;;;;9.75;6.73;;;;;;;21.87;54.50;100865.81;128168;1098;22362;-79
2021/07/21 06:00:50;;;;;;;9.70;6.85;;;;;;;22.10;54.10;100865.05;128270;1098;24336;-79
2021/07/21 06:03:25;;;;;;;12.95;6.98;;;;;;;22.40;53.77;100872.25;128179;1098;22828;-80
2021/07/21 06:06:31;;;;;;;13.15;6.50;;;;;;;22.82;53.39;100875.61;127848;1100;22867;-79
2021/07/21 06:09:20;;;;;;;7.75;6.10;;;;;;;23.19;52.23;100880.73;127978;1101;22353;-81
2021/07/21 06:12:03;;;;;;;9.53;7.25;;;;;;;23.52;51.88;100880.03;127873;1101;24565;-80
2021/07/21 06:14:34;;;;;;;9.10;6.48;;;;;;;23.91;51.14;100881.05;127963;1101;22506;-79
2021/07/21 06:17:05;;;;;;;10.15;6.03;;;;;;;24.26;50.05;100880.03;127939;1101;24186;-79
2021/07/21 06:19:52;;;;;;;8.90;5.73;;;;;;;24.68;49.24;100884.19;127922;1099;22407;-79
2021/07/21 06:22:23;;;;;;;8.05;6.15;;;;;;;25.01;48.27;100875.17;127585;1101;24623;-79
2021/07/21 06:24:56;;;;;;;11.13;5.28;;;;;;;25.29;47.57;100882.30;128183;1100;22387;-80
2021/07/21 06:27:48;;;;;;;6.38;4.73;;;;;;;25.45;46.95;100880.59;127959;1101;22452;-80
2021/07/21 06:30:19;;;;;;;7.00;4.63;;;;;;;25.74;46.85;100881.17;127922;1101;22382;-82
2021/07/21 06:32:49;;;;;;;13.87;5.70;;;;;;;26.06;46.06;100875.82;127868;1101;25039;-80
2021/07/21 06:35:19;;;;;;;9.85;4.90;;;;;;;26.34;45.64;100884.69;127979;1101;22378;-80
2021/07/21 06:37:54;;;;;;;8.00;5.15;;;;;;;26.64;44.51;100889.53;127959;1100;22383;-80
2021/07/21 06:40:27;;;;;;;5.30;4.43;;;;;;;26.82;44.09;100897.21;127939;1098;22406;-79
2021/07/21 06:42:57;;;;;;;15.93;5.13;;;;;;;26.98;43.92;100898.11;128166;1098;22364;-80
2021/07/21 06:45:27;;;;;;;10.28;4.65;;;;;;;27.20;43.22;100895.27;128159;1098;24576;-81
2021/07/21 06:48:09;;;;;;;10.08;4.95;;;;;;;27.44;42.78;100895.62;128237;1098;22359;-80
2021/07/21 06:50:44;;;;;;;20.78;5.60;;;;;;;27.71;42.21;100897.31;128205;1098;22545;-79
2021/07/21 06:53:14;;;;;;;10.45;4.13;;;;;;;27.93;41.53;100900.63;127957;1098;23792;-79
2021/07/21 06:56:03;;;;;;;20.68;5.80;;;;;;;28.11;41.35;100897.37;128187;1098;24304;-77
2021/07/21 06:58:40;;;;;;;9.60;4.63;;;;;;;28.27;40.74;100902.81;128205;1098;25029;-82
2021/07/21 07:01:19;;;;;;;12.43;4.13;;;;;;;28.37;40.18;100900.89;128429;1098;22462;-84
2021/07/21 07:04:08;;;;;;;10.60;4.50;;;;;;;28.41;40.28;100895.76;128032;1098;22370;-81
2021/07/21 07:06:57;;;;;;;7.65;4.10;;;;;;;28.42;39.85;100896.56;128343;1098;22400;-81
2021/07/21 07:09:46;;;;;;;7.28;4.10;;;;;;;28.57;39.61;100894.65;128444;1097;22395;-81
2021/07/21 07:12:30;;;;;;;6.80;3.75;;;;;;;28.70;39.11;100901.42;128307;1098;22372;-82
2021/07/21 07:15:00;;;;;;;11.13;4.13;;;;;;;28.77;38.71;100892.98;128458;1098;22818;-80
2021/07/21 07:17:29;;;;;;;7.93;3.90;;;;;;;28.78;38.51;100894.59;128439;1098;22366;-80
2021/07/21 07:20:00;;;;;;;6.57;4.07;;;;;;;28.59;38.41;100897.92;128239;1098;22369;-80
2021/07/21 07:22:30;;;;;;;6.83;3.55;;;;;;;28.40;38.53;100901.48;128352;1098;24286;-82
2021/07/21 07:25:01;;;;;;;8.58;3.98;;;;;;;28.27;39.06;100895.47;128299;1098;22382;-82
2021/07/21 07:27:31;;;;;;;5.95;3.43;;;;;;;28.07;38.42;100895.48;128432;1096;22388;-81
2021/07/21 07:30:02;;;;;;;8.03;4.00;;;;;;;27.64;38.77;100901.09;128236;1098;22382;-81
2021/07/21 07:32:32;;;;;;;6.08;3.75;;;;;;;27.22;39.18;100906.65;128243;1098;22360;-81
2021/07/21 07:35:04;;;;;;;11.55;5.68;;;;;;;26.68;39.75;100890.63;128226;1098;24563;-77
2021/07/21 07:37:35;;;;;;;6.65;4.23;;;;;;;26.23;40.45;100897.34;128170;1098;22369;-77
2021/07/21 07:40:05;;;;;;;;;;;;;;;25.74;40.50;100894.70;128290;1098;22359;-77
2021/07/21 07:42:36;;;;;;;7.88;4.38;;;;;;;25.27;41.90;100893.38;128215;1098;21276;-78
2021/07/21 07:45:07;;;;;;;10.50;6.57;;;;;;;24.89;42.55;100896.89;128225;1098;23575;-79
2021/07/21 07:47:37;;;;;;;12.90;7.03;;;;;;;24.49;43.50;100899.83;128180;1098;22396;-77
2021/07/21 07:50:11;;;;;;;13.30;6.97;;;;;;;24.24;44.53;100903.74;128204;1098;22800;-78
2021/07/21 07:52:41;;;;;;;11.43;6.60;;;;;;;24.05;45.43;100903.14;128210;1098;22468;-78
2021/07/21 07:55:11;;;;;;;12.80;7.38;;;;;;;23.93;45.79;100908.63;128253;1098;23150;-79
2021/07/21 07:57:41;;;;;;;13.03;6.20;;;;;;;23.82;45.90;100903.27;128265;1098;22439;-80
2021/07/21 08:00:12;;;;;;;6.20;4.15;;;;;;;23.68;45.84;100900.88;128226;1098;22382;-80
2021/07/21 08:02:44;;;;;;;9.83;4.45;;;;;;;23.64;46.85;100896.99;128284;1098;24514;-78
2021/07/21 08:05:14;;;;;;;12.45;6.30;;;;;;;23.57;46.42;100895.51;128342;1098;22364;-77
2021/07/21 08:07:45;;;;;;;10.15;5.40;;;;;;;23.49;46.39;100894.84;128173;1098;22815;-77
2021/07/21 08:10:15;;;;;;;9.40;4.75;;;;;;;23.42;46.62;100904.92;128254;1098;22363;-76
2021/07/21 08:12:45;;;;;;;6.00;4.83;;;;;;;23.37;47.15;100896.75;128260;1096;22363;-76
2021/07/21 08:15:19;;;;;;;10.43;5.60;;;;;;;23.33;47.24;100900.98;128214;1098;22361;-77
2021/07/21 08:17:49;;;;;;;10.60;7.58;;;;;;;23.26;47.09;100903.00;128222;1098;22405;-77
2021/07/21 08:20:19;;;;;;;12.00;5.78;;;;;;;23.20;46.94;100906.64;128177;1097;24499;-76
2021/07/21 08:22:48;;;;;;;10.60;6.18;;;;;;;23.11;47.22;100911.57;128294;1098;22377;-78
2021/07/21 08:25:21;;;;;;;8.55;5.53;;;;;;;23.07;47.60;100914.98;128236;1098;22376;-78
2021/07/21 08:27:53;;;;;;;8.00;5.50;;;;;;;23.04;48.08;100907.38;128184;1098;22399;-77
2021/07/21 08:30:24;;;;;;;7.20;4.78;;;;;;;23.03;48.08;100909.25;128226;1098;22386;-76
2021/07/21 08:32:55;;;;;;;7.23;5.23;;;;;;;22.98;48.24;100915.33;128180;1097;24476;-79
2021/07/21 08:35:28;;;;;;;43.65;40.00;;;;;;;22.93;48.64;100922.50;128207;1098;23325;-83
2021/07/21 08:38:01;;;;;;;10.68;5.70;;;;;;;22.87;48.45;100918.84;128200;1098;23177;-78
2021/07/21 08:40:31;;;;;;;6.60;4.30;;;;;;;22.84;49.12;100915.80;128184;1097;22364;-77
2021/07/21 08:43:21;;;;;;;9.77;4.57;;;;;;;22.84;48.83;100916.61;128227;1098;22398;-78
2021/07/21 08:45:53;;;;;;;10.53;4.30;;;;;;;22.85;49.00;100920.12;128177;1098;22365;-79
2021/07/21 08:48:23;;;;;;;13.83;5.58;;;;;;;22.88;49.26;100931.23;128349;1098;22458;-78
2021/07/21 08:50:54;;;;;;;9.85;5.28;;;;;;;22.87;49.35;100931.48;128349;1096;22376;-78
2021/07/21 08:53:25;;;;;;;6.45;4.58;;;;;;;22.92;49.65;100927.02;128518;1098;22369;-79
2021/07/21 08:55:55;;;;;;;8.90;5.20;;;;;;;23.11;49.71;100926.92;128393;1098;22388;-79
2021/07/21 08:58:25;;;;;;;7.65;4.33;;;;;;;23.28;49.17;100933.21;128373;1098;22373;-78
2021/07/21 09:00:57;;;;;;;10.00;5.28;;;;;;;23.45;48.52;100930.59;128802;1096;22401;-78
2021/07/21 09:03:27;;;;;;;8.07;4.50;;;;;;;23.67;48.40;100919.98;128341;1098;22408;-78
2021/07/21 09:05:58;;;;;;;11.05;6.00;;;;;;;24.08;48.40;100910.76;128215;1097;22370;-78
2021/07/21 09:08:30;;;;;;;9.25;5.50;;;;;;;24.62;47.46;100918.40;128152;1095;24527;-78
2021/07/21 09:11:02;;;;;;;19.53;5.73;;;;;;;24.87;45.74;100921.48;128208;1098;22372;-78
2021/07/21 09:13:36;;;;;;;8.25;4.63;;;;;;;24.98;44.79;100933.24;128293;1098;22392;-78
2021/07/21 09:16:07;;;;;;;10.05;4.90;;;;;;;24.75;44.29;100931.56;128273;1098;22388;-77
2021/07/21 09:18:52;;;;;;;7.28;5.33;;;;;;;24.48;44.21;100934.13;128241;1098;22391;-78
2021/07/21 09:21:24;;;;;;;10.03;4.88;;;;;;;24.24;44.39;100936.14;128178;1098;22438;-77
2021/07/21 09:24:00;;;;;;;6.85;5.13;;;;;;;24.00;45.09;100934.64;128229;1098;22376;-78
2021/07/21 09:26:39;;;;;;;10.13;5.28;;;;;;;23.77;45.35;100933.69;128189;1098;22372;-79
2021/07/21 09:29:09;;;;;;;6.63;5.45;;;;;;;23.58;45.71;100934.89;128176;1098;24515;-79
2021/07/21 09:31:45;;;;;;;7.37;5.10;;;;;;;23.52;45.98;100930.45;128201;1097;22376;-79
2021/07/21 09:34:22;;;;;;;10.15;5.55;;;;;;;23.46;45.70;100933.06;128191;1098;22389;-79
2021/07/21 09:37:13;;;;;;;8.18;5.25;;;;;;;23.46;46.81;100924.98;128170;1098;22372;-78
2021/07/21 09:39:44;;;;;;;12.83;7.30;;;;;;;23.58;45.82;100927.62;128208;1098;24265;-78
2021/07/21 09:42:14;;;;;;;12.58;5.55;;;;;;;23.65;45.65;100927.48;128226;1097;23144;-78
2021/07/21 09:44:46;;;;;;;11.07;5.23;;;;;;;23.66;44.65;100926.44;128183;1098;22382;-78
2021/07/21 09:47:21;;;;;;;5.50;3.58;;;;;;;23.67;43.68;100920.79;128190;1098;22341;-78
2021/07/21 09:50:14;;;;;;;7.68;4.00;;;;;;;23.81;42.61;100925.92;128207;1096;22363;-79
2021/07/21 09:52:55;;;;;;;5.60;3.98;;;;;;;24.04;41.82;100914.20;128166;1098;22464;-78
2021/07/21 09:55:25;;;;;;;;;;;;;;;24.19;41.46;100919.84;128231;1098;22388;-78
2021/07/21 09:58:26;;;;;;;7.48;4.08;;;;;;;24.25;41.12;100908.07;128131;1098;21274;-78
2021/07/21 10:00:56;;;;;;;6.63;5.03;;;;;;;24.39;41.57;100908.55;128177;1098;23138;-78
2021/07/21 10:03:29;;;;;;;9.65;4.20;;;;;;;24.69;40.82;100902.02;128154;1098;22369;-78
2021/07/21 10:06:11;;;;;;;10.48;5.48;;;;;;;25.07;40.68;100912.02;128206;1098;22378;-78
2021/07/21 10:09:03;;;;;;;5.30;4.65;;;;;;;25.53;39.33;100907.20;128285;1098;24502;-79
2021/07/21 10:11:39;;;;;;;6.73;4.78;;;;;;;26.00;37.83;100907.44;127913;1101;22468;-78
2021/07/21 10:14:15;;;;;;;11.10;5.38;;;;;;;26.31;37.02;100904.98;127941;1101;23973;-78
2021/07/21 10:16:52;;;;;;;6.45;4.15;;;;;;;26.56;36.00;100900.84;127933;1101;22551;-79
2021/07/21 10:19:28;;;;;;;8.55;4.48;;;;;;;26.83;35.70;100900.77;127958;1098;24336;-78
2021/07/21 10:22:01;;;;;;;5.18;4.25;;;;;;;27.08;34.60;100911.72;127957;1099;22371;-79
2021/07/21 10:24:35;;;;;;;7.50;3.90;;;;;;;27.17;34.11;100904.75;128034;1098;22384;-78
2021/07/21 10:27:05;;;;;;;9.05;5.28;;;;;;;27.23;34.05;100911.02;127966;1098;22392;-78
2021/07/21 10:29:35;;;;;;;8.38;4.15;;;;;;;27.23;33.79;100908.30;127952;1098;22354;-78
2021/07/21 10:32:07;;;;;;;7.10;4.00;;;;;;;27.18;33.92;100900.13;127908;1098;22676;-77
2021/07/21 10:34:38;;;;;;;5.33;4.13;;;;;;;27.17;33.79;100899.32;127874;1098;24538;-78
2021/07/21 10:37:10;;;;;;;4.55;3.28;;;;;;;27.17;33.92;100893.89;127907;1098;24266;-79
2021/07/21 10:39:40;;;;;;;10.78;4.25;;;;;;;27.28;33.90;100902.07;128012;1098;22378;-79
2021/07/21 10:42:15;;;;;;;7.83;3.87;;;;;;;27.38;33.62;100893.97;127949;1098;22744;-79
2021/07/21 10:45:21;;;;;;;8.75;3.95;;;;;;;27.14;33.28;100899.84;127967;1098;22365;-78
2021/07/21 10:48:08;;;;;;;12.05;4.03;;;;;;;26.60;33.92;100915.52;127925;1098;22407;-79
2021/07/21 10:59:22;;;;;;;4.93;3.98;;;;;;;25.95;35.35;100901.14;128176;1098;24326;-79
2021/07/21 11:02:00;;;;;;;5.43;3.60;;;;;;;26.08;35.29;100916.97;128186;1098;24502;-78
2021/07/21 11:04:45;;;;;;;7.88;3.75;;;;;;;26.21;35.11;100907.61;128297;1097;22366;-78
2021/07/21 11:07:48;;;;;;;5.43;3.90;;;;;;;26.24;34.92;100910.61;128223;1098;22369;-82
2021/07/21 11:10:40;;;;;;;6.38;3.23;;;;;;;26.05;35.09;100910.17;128432;1098;22377;-81
2021/07/21 11:13:35;;;;;;;6.03;4.00;;;;;;;25.89;35.44;100918.41;128436;1098;22388;-80
2021/07/21 11:16:07;;;;;;;8.83;3.88;;;;;;;25.73;35.62;100907.41;128422;1098;22369;-81
2021/07/21 11:18:43;;;;;;;5.63;4.05;;;;;;;25.64;36.21;100906.23;128499;1098;22865;-81
2021/07/21 11:21:20;;;;;;;8.25;3.90;;;;;;;25.58;35.92;100907.24;128552;1098;22375;-82
2021/07/21 11:23:53;;;;;;;6.98;4.33;;;;;;;25.57;36.42;100906.43;128320;1098;24515;-80
2021/07/21 11:26:51;;;;;;;5.10;3.55;;;;;;;25.58;36.16;100904.53;128470;1098;22478;-82
2021/07/21 11:29:30;;;;;;;5.78;3.55;;;;;;;25.55;36.07;100902.34;128194;1101;22844;-80
2021/07/21 11:32:01;;;;;;;8.13;3.50;;;;;;;25.56;36.26;100901.28;128435;1100;22376;-81
2021/07/21 11:34:37;;;;;;;5.03;3.60;;;;;;;25.59;36.77;100916.98;128167;1101;22425;-81
2021/07/21 11:37:33;;;;;;;6.95;3.50;;;;;;;25.53;36.58;100909.91;127485;1101;22513;-80
2021/07/21 11:40:16;;;;;;;3.93;3.40;;;;;;;25.40;36.70;100908.41;127442;1104;22401;-80
2021/07/21 11:42:46;;;;;;;6.63;3.13;;;;;;;25.35;36.67;100909.14;127959;1105;22396;-82
2021/07/21 11:45:20;;;;;;;5.03;3.53;;;;;;;25.31;36.97;100899.91;127433;1104;22389;-81
2021/07/21 11:47:56;;;;;;;7.73;3.63;;;;;;;25.32;36.81;100914.23;127234;1108;22543;-80
2021/07/21 11:50:31;;;;;;;7.70;2.93;;;;;;;25.30;36.69;100906.39;126946;1108;22448;-80
2021/07/21 11:53:09;;;;;;;12.88;6.93;;;;;;;25.39;36.47;100912.19;126776;1108;24317;-80
2021/07/21 11:55:41;;;;;;;5.15;3.70;;;;;;;25.44;35.88;100906.02;126986;1107;22426;-82
2021/07/21 11:58:15;;;;;;;7.38;4.63;;;;;;;25.49;36.17;100914.17;127091;1105;22413;-82
2021/07/21 12:00:51;;;;;;;9.35;4.20;;;;;;;25.53;36.19;100908.02;127035;1105;23357;-86
2021/07/21 12:03:24;;;;;;;6.08;3.68;;;;;;;25.59;36.48;100908.86;127245;1105;22423;-80
2021/07/21 12:05:57;;;;;;;9.27;4.50;;;;;;;25.63;35.88;100918.13;126997;1105;22449;-78
2021/07/21 12:08:27;;;;;;;4.93;2.60;;;;;;;25.55;35.52;100903.15;127543;1101;23955;-79
2021/07/21 12:10:57;;;;;;;9.03;3.75;;;;;;;25.47;35.72;100911.73;127930;1101;22371;-79
2021/07/21 12:13:26;;;;;;;5.68;2.58;;;;;;;25.43;35.88;100907.09;127921;1099;22728;-78